This is the latest recevied weather packets stored in our database for station/object KF4CQ. If no packets are shown the sender has not sent any weather packets the latest 10 day(s).
| Time | Temp. | Humidity | Pressure | Rain* | Wind** | Luminosity | Snow |
|---|---|---|---|---|---|---|---|
| 1777426087 | 23.33° C | 80% | 1018.9 hPa | 0 mm | - | 0 W/m² | - |
| 1777425783 | 23.33° C | 80% | 1018.9 hPa | 0 mm | - | 0 W/m² | - |
| 1777424871 | 23.33° C | 79% | 1018.8 hPa | 0 mm | - | 0 W/m² | - |
| 1777424570 | 23.89° C | 78% | 1018.6 hPa | 0 mm | - | 0 W/m² | - |
| 1777423046 | 23.89° C | 76% | 1018.9 hPa | 0 mm | - | 0 W/m² | - |
| 1777422441 | 24.44° C | 75% | 1018.7 hPa | 0 mm | - | 0 W/m² | - |
| 1777421836 | 25° C | 74% | 1018.8 hPa | 0 mm | - | 0 W/m² | - |
| 1777419540 | 26.11° C | 69% | 1018.7 hPa | 0 mm | - | 12 W/m² | - |
| 1777417053 | 27.78° C | 65% | 1018.8 hPa | 0 mm | - | 41 W/m² | - |
| 1777400397 | 31.67° C | 58% | 1020.9 hPa | 0 mm | - | 261 W/m² | - |
| 1777398881 | 30.56° C | 58% | 1021 hPa | 0 mm | - | 134 W/m² | - |
| 1777398578 | 29.44° C | 60% | 1020.9 hPa | 0 mm | - | 699 W/m² | - |
| 1777398274 | 30.56° C | 58% | 1020.8 hPa | 0 mm | - | 262 W/m² | - |
| 1777397667 | 28.89° C | 62% | 1020.9 hPa | 0 mm | - | 182 W/m² | - |
| 1777397060 | 28.33° C | 65% | 1021 hPa | 0 mm | - | 918 W/m² | - |
| 1777396757 | 30° C | 62% | 1021 hPa | 0 mm | - | 933 W/m² | - |
| 1777396150 | 30° C | 63% | 1021 hPa | 0 mm | - | 258 W/m² | - |
| 1777393726 | 28.89° C | 70% | 1021.3 hPa | 0 mm | - | 783 W/m² | - |
| 1777393420 | 28.33° C | 70% | 1021.4 hPa | 0 mm | - | 796 W/m² | - |
| 1777393117 | 27.78° C | 70% | 1021.3 hPa | 0 mm | - | 583 W/m² | - |
| 1777389774 | 26.67° C | 74% | 1021.8 hPa | 0 mm | - | 659 W/m² | - |
| 1777389470 | 26.67° C | 75% | 1021.9 hPa | 0 mm | - | 649 W/m² | - |
| 1777388866 | 26.67° C | 76% | 1022.1 hPa | 0 mm | - | 700 W/m² | - |
| 1777387046 | 24.44° C | 84% | 1022 hPa | 0 mm | - | 173 W/m² | - |
| 1777386440 | 24.44° C | 83% | 1021.7 hPa | 0 mm | - | 202 W/m² | - |
* Rain latest hour (hover to see other rain measurements)
** Current wind speed in m/s (hover to see current wind gust speed)